Terminal Aerodrome Forecast
Issued by NWS Upton, NY

Current Version | Previous Version | Text Only | Print | Product List | Glossary On
Versions: 1 2 3 4 5 6 7 8 9 10 11 12 13 14 15 16 17 18 19 20 21 22 23 24 25 26 27 28 29 30 31 32 33 34 35 36 37 38 39 40 41 42 43 44 45 46 47 48
000
FTUS41 KOKX 131740
TAFBDR
TAF
KBDR 131740Z 1318/1418 21011KT P6SM SCT040 SCT080
     FM132300 19007KT P6SM SCT040 SCT080
     FM140400 19005KT P6SM VCSH BKN070
     FM141000 17004KT 5SM -SHRA VCTS BKN040CB
     FM141200 17007KT 5SM -SHRA VCTS OVC015CB
     FM141400 16009KT 6SM -SHRA BR BKN008
     FM141600 15010KT P6SM VCSH BKN015=

USA.gov is the U.S. government's official web portal to all federal, state and local government web resources and services.